This is the latest recevied weather packets stored in our database for station/object HS5GDX-4. If no packets are shown the sender has not sent any weather packets the latest 10 day(s).
| Time | Temp. | Humidity | Pressure | Rain* | Wind** | Luminosity | Snow |
|---|---|---|---|---|---|---|---|
| 1778159533 | 34.44° C | 40% | 965 hPa | - | - | 0 W/m² | - |
| 1778156748 | 36.11° C | 37% | 964 hPa | - | - | 0 W/m² | - |
| 1778155821 | 36.11° C | 37% | 964 hPa | - | - | 0 W/m² | - |
| 1778153966 | 37.22° C | 34% | 962 hPa | - | - | 0 W/m² | - |
| 1778153038 | 38.89° C | 33% | 962 hPa | - | - | 0 W/m² | - |
| 1778152110 | 38.33° C | 32% | 962 hPa | - | - | 0 W/m² | - |
| 1778151181 | 38.89° C | 32% | 961 hPa | - | - | 0 W/m² | - |
| 1778150254 | 38.89° C | 32% | 961 hPa | - | - | 0 W/m² | - |
| 1778149325 | 38.89° C | 32% | 961 hPa | - | - | 0 W/m² | - |
| 1778148396 | 38.89° C | 32% | 961 hPa | - | - | 0 W/m² | - |
| 1778147468 | 39.44° C | 32% | 961 hPa | - | - | 0 W/m² | - |
| 1778146540 | 39.44° C | 32% | 961 hPa | - | - | 0 W/m² | - |
| 1778145611 | 38.33° C | 34% | 961 hPa | - | - | 0 W/m² | - |
| 1778144683 | 37.78° C | 35% | 962 hPa | - | - | 0 W/m² | - |
| 1778143753 | 38.33° C | 34% | 962 hPa | - | - | 0 W/m² | - |
| 1778142825 | 38.33° C | 34% | 962 hPa | - | - | 0 W/m² | - |
| 1778141898 | 38.33° C | 33% | 962 hPa | - | - | 0 W/m² | - |
| 1778140970 | 39.44° C | 32% | 962 hPa | - | - | 0 W/m² | - |
| 1778140042 | 39.44° C | 32% | 962 hPa | - | - | 0 W/m² | - |
| 1778139978 | 39.44° C | 32% | 962 hPa | - | - | 0 W/m² | - |
| 1778139051 | 40° C | 31% | 962 hPa | - | - | 0 W/m² | - |
| 1778138123 | 39.44° C | 33% | 963 hPa | - | - | 0 W/m² | - |
| 1778137195 | 37.78° C | 37% | 963 hPa | - | - | 0 W/m² | - |
| 1778136265 | 37.78° C | 37% | 963 hPa | - | - | 0 W/m² | - |
| 1778135337 | 38.33° C | 36% | 964 hPa | - | - | 0 W/m² | - |
* Rain since midnight (hover to see other rain measurements)
** Current wind speed in m/s (hover to see current wind gust speed)